createdAt,value
2024-01-16T00:01:08.347Z,1.80
2024-01-16T00:03:35.162Z,2.10
2024-01-16T00:06:02.266Z,2.05
2024-01-16T00:08:29.113Z,2.63
2024-01-16T00:10:55.987Z,5.28
2024-01-16T00:13:22.938Z,6.70
2024-01-16T00:15:50.860Z,3.50
2024-01-16T00:18:17.903Z,2.10
2024-01-16T00:20:45.183Z,2.00
2024-01-16T00:23:12.357Z,3.28
2024-01-16T00:25:39.185Z,2.20
2024-01-16T00:28:06.352Z,1.73
2024-01-16T00:30:34.722Z,1.17
2024-01-16T00:33:01.668Z,1.60
2024-01-16T00:35:28.596Z,1.40
2024-01-16T00:37:55.421Z,1.45
2024-01-16T00:40:22.260Z,16.17
2024-01-16T00:42:49.007Z,4.60
2024-01-16T00:45:15.908Z,4.95
2024-01-16T00:47:42.933Z,2.47
2024-01-16T00:50:10.644Z,2.80
2024-01-16T00:52:37.521Z,1.95
2024-01-16T00:55:05.621Z,1.27
2024-01-16T00:57:32.462Z,1.60
2024-01-16T00:59:59.278Z,1.33
2024-01-16T01:02:26.148Z,1.15
2024-01-16T01:04:53.025Z,1.65
2024-01-16T01:07:20.015Z,0.70
2024-01-16T01:09:46.781Z,1.00
2024-01-16T01:12:13.629Z,0.65
2024-01-16T01:14:40.518Z,1.02
2024-01-16T01:17:07.774Z,0.52
2024-01-16T01:19:34.809Z,1.50
2024-01-16T01:22:01.728Z,0.80
2024-01-16T01:24:28.666Z,0.85
2024-01-16T01:26:55.665Z,0.40
2024-01-16T01:29:22.572Z,0.60
2024-01-16T01:31:49.423Z,0.25
2024-01-16T01:34:17.108Z,0.45
2024-01-16T01:36:44.599Z,0.43
2024-01-16T01:39:12.360Z,1.02
2024-01-16T01:41:39.803Z,0.55
2024-01-16T01:44:07.804Z,0.57
2024-01-16T01:46:35.722Z,0.95
2024-01-16T01:49:02.695Z,0.68
2024-01-16T01:51:29.662Z,4.35
2024-01-16T01:53:56.760Z,0.98
2024-01-16T01:56:24.049Z,0.90
2024-01-16T01:58:52.960Z,0.70
2024-01-16T02:03:47.377Z,1.15
2024-01-16T02:06:14.764Z,0.98
2024-01-16T02:08:42.105Z,1.10
2024-01-16T02:11:09.391Z,0.70
2024-01-16T02:13:36.558Z,0.30
2024-01-16T02:16:04.587Z,0.38
2024-01-16T02:18:31.534Z,0.55
2024-01-16T02:21:02.880Z,0.50
2024-01-16T02:23:29.742Z,1.75
2024-01-16T02:25:56.611Z,1.25
2024-01-16T02:28:23.527Z,1.00
2024-01-16T02:30:50.519Z,1.52
2024-01-16T02:33:17.556Z,1.65
2024-01-16T02:35:44.671Z,0.70
2024-01-16T02:38:11.686Z,1.67
2024-01-16T02:40:38.546Z,1.05
2024-01-16T02:43:05.435Z,0.90
2024-01-16T02:45:32.305Z,0.80
2024-01-16T02:47:59.220Z,0.88
2024-01-16T02:50:26.270Z,0.73
2024-01-16T02:52:53.247Z,0.93
2024-01-16T02:55:20.508Z,1.33
2024-01-16T02:57:47.351Z,1.70
2024-01-16T03:00:15.053Z,2.20
2024-01-16T03:02:42.353Z,2.08
2024-01-16T03:05:09.685Z,2.13
2024-01-16T03:07:36.812Z,3.20
2024-01-16T03:10:04.173Z,4.10
2024-01-16T03:12:31.020Z,3.67
2024-01-16T03:14:57.942Z,3.70
2024-01-16T03:17:24.987Z,3.28
2024-01-16T03:19:51.867Z,2.72
2024-01-16T03:22:19.668Z,3.33
2024-01-16T03:24:47.174Z,2.53
2024-01-16T03:27:14.618Z,3.40
2024-01-16T03:29:41.654Z,4.32
2024-01-16T03:32:09.189Z,2.58
2024-01-16T03:34:36.212Z,1.55
2024-01-16T03:37:03.137Z,3.28
2024-01-16T03:39:29.883Z,3.35
2024-01-16T03:41:56.828Z,2.22
2024-01-16T03:44:23.760Z,3.33
2024-01-16T03:46:50.613Z,2.30
2024-01-16T03:49:17.535Z,2.38
2024-01-16T03:51:47.480Z,2.35
2024-01-16T03:54:14.678Z,2.80
2024-01-16T03:56:41.757Z,2.08
2024-01-16T03:59:08.872Z,3.55
2024-01-16T04:01:38.364Z,11.07
2024-01-16T04:04:08.038Z,2.03
2024-01-16T04:06:35.277Z,2.47
2024-01-16T04:09:02.441Z,1.80
2024-01-16T04:11:31.064Z,7.60
2024-01-16T04:13:58.186Z,6.50
2024-01-16T04:16:25.433Z,4.07
2024-01-16T04:18:52.297Z,2.47
2024-01-16T04:21:20.792Z,3.20
2024-01-16T04:23:48.120Z,3.63
2024-01-16T04:26:15.242Z,4.10
2024-01-16T04:28:42.972Z,4.65
2024-01-16T04:31:09.857Z,4.88
2024-01-16T04:33:36.841Z,5.22
2024-01-16T04:36:03.923Z,3.50
2024-01-16T04:38:30.857Z,7.15
2024-01-16T04:40:57.703Z,4.07
2024-01-16T04:43:24.592Z,13.85
2024-01-16T04:45:51.453Z,5.35
2024-01-16T04:48:18.498Z,1.55
2024-01-16T04:50:46.882Z,1.48
2024-01-16T04:53:14.064Z,2.08
2024-01-16T04:55:41.024Z,4.13
2024-01-16T04:58:08.797Z,2.08
2024-01-16T05:00:35.658Z,2.35
2024-01-16T05:03:06.302Z,2.25
2024-01-16T05:05:33.412Z,2.90
2024-01-16T05:08:02.437Z,3.97
2024-01-16T05:12:55.949Z,2.90
2024-01-16T05:15:22.725Z,2.25
2024-01-16T05:17:49.677Z,2.40
2024-01-16T05:20:16.811Z,2.05
2024-01-16T05:22:43.578Z,1.55
2024-01-16T05:25:10.532Z,0.93
2024-01-16T05:27:37.353Z,0.73
2024-01-16T05:30:04.804Z,1.40
2024-01-16T05:32:31.895Z,1.50
2024-01-16T05:34:59.178Z,2.00
2024-01-16T05:37:26.019Z,1.58
2024-01-16T05:39:52.899Z,1.70
2024-01-16T05:42:19.789Z,4.15
2024-01-16T05:44:46.682Z,3.25
2024-01-16T05:47:13.620Z,4.68
2024-01-16T05:49:40.790Z,3.00
2024-01-16T05:52:08.688Z,2.00
2024-01-16T05:54:35.521Z,1.90
2024-01-16T05:57:02.236Z,1.42
2024-01-16T05:59:31.840Z,2.97
2024-01-16T06:01:58.737Z,0.60
2024-01-16T06:04:25.702Z,1.30
2024-01-16T06:06:52.634Z,3.92
2024-01-16T06:09:19.798Z,2.20
2024-01-16T06:11:46.651Z,2.45
2024-01-16T06:14:14.501Z,1.73
2024-01-16T06:16:41.457Z,1.65
2024-01-16T06:19:09.604Z,2.38
2024-01-16T06:21:36.606Z,4.63
2024-01-16T06:24:03.528Z,4.60
2024-01-16T06:26:30.452Z,8.57
2024-01-16T06:28:57.380Z,8.10
2024-01-16T06:31:26.982Z,10.07
2024-01-16T06:33:54.003Z,24.23
2024-01-16T06:36:21.278Z,39.50
2024-01-16T06:38:48.295Z,35.38
2024-01-16T06:41:15.366Z,18.15
2024-01-16T06:43:42.319Z,17.85
2024-01-16T06:46:09.135Z,27.42
2024-01-16T06:48:38.251Z,24.45
2024-01-16T06:51:05.986Z,11.30
2024-01-16T06:53:32.853Z,18.17
2024-01-16T06:55:59.879Z,17.15
2024-01-16T06:58:26.727Z,16.88
2024-01-16T07:00:53.621Z,13.55
2024-01-16T07:03:20.415Z,14.50
2024-01-16T07:05:47.426Z,13.43
2024-01-16T07:08:14.307Z,6.35
2024-01-16T07:10:41.145Z,6.25
2024-01-16T07:13:08.745Z,8.45
2024-01-16T07:15:35.490Z,9.48
2024-01-16T07:18:02.462Z,3.97
2024-01-16T07:20:29.535Z,3.88
2024-01-16T07:22:56.533Z,4.72
2024-01-16T07:25:23.577Z,5.22
2024-01-16T07:27:51.134Z,4.97
2024-01-16T07:30:18.056Z,3.42
2024-01-16T07:32:45.089Z,22.30
2024-01-16T07:35:12.202Z,21.00
2024-01-16T07:37:39.322Z,30.00
2024-01-16T07:40:10.864Z,25.92
2024-01-16T07:42:37.749Z,18.20
2024-01-16T07:45:05.777Z,8.82
2024-01-16T07:50:01.741Z,2.10
2024-01-16T07:52:29.802Z,1.83
2024-01-16T07:54:56.669Z,2.70
2024-01-16T07:57:23.530Z,2.10
2024-01-16T07:59:50.396Z,2.83
2024-01-16T08:02:18.530Z,4.20
2024-01-16T08:04:45.557Z,4.43
2024-01-16T08:07:12.337Z,4.70
2024-01-16T08:09:39.178Z,3.20
2024-01-16T08:12:07.181Z,9.73
2024-01-16T08:14:34.151Z,10.77
2024-01-16T08:17:01.223Z,7.22
2024-01-16T08:19:28.109Z,4.57
2024-01-16T08:21:54.910Z,5.30
2024-01-16T08:24:21.801Z,7.57
2024-01-16T08:26:49.130Z,8.80
2024-01-16T08:29:15.977Z,8.80
2024-01-16T08:31:42.859Z,8.80
2024-01-16T08:34:09.765Z,11.27
2024-01-16T08:36:36.756Z,9.95
2024-01-16T08:39:04.273Z,10.23
2024-01-16T08:41:31.316Z,9.43
2024-01-16T08:43:58.163Z,6.53
2024-01-16T08:46:24.941Z,6.60
2024-01-16T08:48:51.995Z,7.28
2024-01-16T08:51:18.860Z,7.38
2024-01-16T08:53:45.677Z,7.63
2024-01-16T08:56:13.773Z,5.78
2024-01-16T09:01:09.038Z,4.03
2024-01-16T09:03:35.913Z,3.80
2024-01-16T09:06:03.058Z,10.48
2024-01-16T09:08:30.297Z,4.43
2024-01-16T09:10:57.213Z,3.47
2024-01-16T09:13:24.679Z,2.80
2024-01-16T09:15:51.614Z,4.10
2024-01-16T09:18:18.763Z,2.83
2024-01-16T09:20:45.885Z,2.80
2024-01-16T09:23:14.107Z,2.17
2024-01-16T09:25:41.438Z,3.63
2024-01-16T09:28:08.405Z,3.50
2024-01-16T09:30:35.357Z,2.50
2024-01-16T09:33:02.763Z,2.78
2024-01-16T09:35:29.681Z,1.80
2024-01-16T09:37:56.603Z,4.05
2024-01-16T09:40:23.507Z,3.85
2024-01-16T09:42:50.671Z,4.10
2024-01-16T09:45:21.016Z,4.18
2024-01-16T09:47:51.486Z,3.75
2024-01-16T09:50:21.567Z,4.25
2024-01-16T09:52:48.841Z,3.72
2024-01-16T09:55:16.374Z,4.15
2024-01-16T09:57:43.422Z,1.80
2024-01-16T10:00:12.804Z,2.08
2024-01-16T10:02:43.457Z,1.58
2024-01-16T10:05:11.826Z,5.20
2024-01-16T10:07:39.491Z,3.53
2024-01-16T10:10:06.889Z,2.95
2024-01-16T10:12:34.203Z,1.20
2024-01-16T10:15:01.185Z,3.40
2024-01-16T10:17:41.571Z,2.65
2024-01-16T10:22:35.902Z,2.28
2024-01-16T10:25:10.160Z,1.75
2024-01-16T10:27:37.903Z,1.63
2024-01-16T10:30:05.764Z,1.35
2024-01-16T10:32:39.165Z,1.40
2024-01-16T10:35:10.155Z,0.80
2024-01-16T10:37:46.900Z,1.10
2024-01-16T10:40:17.810Z,1.30
2024-01-16T10:42:45.583Z,0.80
2024-01-16T10:45:18.761Z,1.30
2024-01-16T10:47:47.456Z,2.70
2024-01-16T10:50:14.512Z,1.33
2024-01-16T10:52:50.351Z,0.57
2024-01-16T10:55:23.956Z,3.28
2024-01-16T10:57:51.794Z,1.98
2024-01-16T11:00:22.738Z,1.15
2024-01-16T11:03:09.060Z,3.00
2024-01-16T11:05:36.128Z,0.65
2024-01-16T11:08:03.101Z,2.15
2024-01-16T11:10:29.996Z,2.60
2024-01-16T11:12:57.304Z,2.13
2024-01-16T11:15:24.204Z,1.50
2024-01-16T11:17:51.410Z,0.90
2024-01-16T11:20:37.531Z,0.50
2024-01-16T11:23:05.160Z,1.50
2024-01-16T11:25:33.636Z,0.50
2024-01-16T11:28:21.179Z,1.20
2024-01-16T11:30:49.286Z,0.52
2024-01-16T11:33:34.532Z,0.80
2024-01-16T11:36:01.928Z,0.63
2024-01-16T11:38:29.043Z,0.70
2024-01-16T11:40:56.848Z,1.15
2024-01-16T11:43:41.393Z,1.10
2024-01-16T11:46:08.876Z,3.10
2024-01-16T11:48:36.459Z,1.88
2024-01-16T11:51:23.723Z,1.60
2024-01-16T11:53:50.731Z,1.00
2024-01-16T11:56:30.871Z,2.17
2024-01-16T11:59:29.395Z,4.97
2024-01-16T12:01:59.679Z,2.08
2024-01-16T12:04:28.956Z,3.53
2024-01-16T12:09:29.442Z,4.80
2024-01-16T12:12:03.021Z,6.38
2024-01-16T12:14:30.534Z,3.90
2024-01-16T12:17:20.061Z,4.45
2024-01-16T12:19:47.984Z,7.45
2024-01-16T12:22:15.166Z,5.03
2024-01-16T12:24:42.160Z,4.53
2024-01-16T12:27:10.285Z,6.43
2024-01-16T12:29:37.748Z,8.55
2024-01-16T12:32:12.369Z,8.63
2024-01-16T12:37:14.284Z,6.10
2024-01-16T12:39:42.928Z,8.35
2024-01-16T12:42:11.189Z,11.23
2024-01-16T12:44:38.105Z,6.03
2024-01-16T12:47:05.187Z,9.85
2024-01-16T12:49:32.205Z,7.03
2024-01-16T12:52:19.337Z,9.40
2024-01-16T12:54:46.569Z,10.65
2024-01-16T12:57:18.793Z,8.63
2024-01-16T12:59:45.820Z,5.68
2024-01-16T13:02:21.798Z,5.80
2024-01-16T13:04:49.027Z,7.30
2024-01-16T13:07:21.891Z,7.10
2024-01-16T13:09:48.794Z,6.35
2024-01-16T13:12:22.377Z,6.43
2024-01-16T13:14:49.245Z,9.48
2024-01-16T13:17:16.237Z,6.90
2024-01-16T13:19:43.284Z,7.90
2024-01-16T13:22:10.199Z,6.47
2024-01-16T13:24:37.383Z,6.15
2024-01-16T13:27:05.933Z,4.47
2024-01-16T13:29:36.752Z,4.78
2024-01-16T13:32:03.660Z,4.13
2024-01-16T13:34:30.631Z,4.68
2024-01-16T13:37:15.009Z,2.97
2024-01-16T13:39:43.639Z,2.50
2024-01-16T13:42:10.445Z,4.47
2024-01-16T13:44:37.523Z,4.63
2024-01-16T13:47:08.963Z,3.88
2024-01-16T13:49:39.433Z,4.22
2024-01-16T13:52:07.180Z,5.22
2024-01-16T13:54:33.998Z,4.50
2024-01-16T13:57:06.824Z,3.65
2024-01-16T13:59:36.478Z,4.53
2024-01-16T14:02:05.617Z,5.78
2024-01-16T14:04:32.471Z,8.98
2024-01-16T14:07:11.081Z,11.18
2024-01-16T14:09:43.064Z,10.07
2024-01-16T14:12:10.761Z,9.20
2024-01-16T14:14:39.803Z,5.60
2024-01-16T14:17:06.819Z,6.57
2024-01-16T14:19:36.441Z,6.10
2024-01-16T14:22:03.719Z,7.35
2024-01-16T14:24:30.647Z,9.07
2024-01-16T14:27:00.250Z,12.15
2024-01-16T14:29:28.352Z,10.65
2024-01-16T14:31:57.916Z,5.93
2024-01-16T14:34:25.991Z,5.40
2024-01-16T14:36:54.657Z,5.72
2024-01-16T14:39:26.820Z,6.60
2024-01-16T14:41:54.774Z,10.57
2024-01-16T14:44:22.109Z,9.20
2024-01-16T14:46:51.871Z,11.07
2024-01-16T14:49:20.391Z,10.73
2024-01-16T14:51:47.934Z,11.55
2024-01-16T14:54:15.032Z,11.55
2024-01-16T14:56:42.188Z,13.23
2024-01-16T14:59:13.196Z,29.30
2024-01-16T15:01:42.260Z,24.02
2024-01-16T15:04:09.426Z,25.23
2024-01-16T15:06:36.633Z,13.80
2024-01-16T15:09:03.684Z,14.23
2024-01-16T15:11:30.581Z,19.98
2024-01-16T15:14:00.214Z,26.05
2024-01-16T15:16:27.379Z,25.63
2024-01-16T15:18:54.361Z,22.90
2024-01-16T15:21:21.264Z,27.88
2024-01-16T15:23:48.197Z,27.23
2024-01-16T15:26:20.606Z,27.75
2024-01-16T15:28:50.190Z,26.13
2024-01-16T15:31:17.922Z,22.10
2024-01-16T15:33:45.524Z,24.50
2024-01-16T15:36:12.471Z,25.88
2024-01-16T15:38:39.461Z,22.55
2024-01-16T15:41:06.539Z,30.08
2024-01-16T15:43:33.424Z,28.38
2024-01-16T15:46:00.941Z,23.17
2024-01-16T15:48:34.398Z,22.10
2024-01-16T15:51:01.749Z,18.70
2024-01-16T15:53:28.919Z,22.85
2024-01-16T15:55:55.815Z,24.13
2024-01-16T15:58:22.678Z,23.58
2024-01-16T16:00:49.618Z,24.65
2024-01-16T16:03:16.767Z,25.27
2024-01-16T16:05:43.709Z,26.45
2024-01-16T16:08:11.674Z,29.23
2024-01-16T16:10:38.586Z,27.55
2024-01-16T16:13:05.600Z,26.42
2024-01-16T16:15:33.040Z,25.52
2024-01-16T16:18:00.154Z,21.40
2024-01-16T16:20:27.482Z,18.40
2024-01-16T16:22:54.798Z,21.38
2024-01-16T16:25:21.745Z,16.20
2024-01-16T16:27:49.026Z,16.52
2024-01-16T16:30:16.216Z,18.25
2024-01-16T16:32:43.475Z,30.55
2024-01-16T16:35:11.349Z,20.25
2024-01-16T16:37:38.165Z,15.10
2024-01-16T16:40:06.309Z,19.58
2024-01-16T16:42:33.524Z,17.95
2024-01-16T16:45:00.673Z,26.23
2024-01-16T16:47:27.850Z,18.30
2024-01-16T16:49:54.724Z,18.92
2024-01-16T16:52:21.766Z,17.50
2024-01-16T16:54:49.715Z,14.98
2024-01-16T16:57:16.725Z,13.77
2024-01-16T16:59:43.711Z,14.48
2024-01-16T17:02:11.281Z,15.48
2024-01-16T17:04:38.363Z,18.17
2024-01-16T17:07:05.476Z,19.88
2024-01-16T17:09:32.932Z,20.88
2024-01-16T17:11:59.958Z,19.13
2024-01-16T17:14:26.917Z,19.85
2024-01-16T17:16:53.844Z,17.45
2024-01-16T17:19:20.806Z,19.50
2024-01-16T17:21:47.746Z,16.05
2024-01-16T17:24:15.328Z,21.40
2024-01-16T17:26:43.088Z,18.58
2024-01-16T17:29:10.055Z,19.02
2024-01-16T17:31:38.119Z,19.30
2024-01-16T17:34:06.779Z,20.38
2024-01-16T17:36:33.866Z,21.02
2024-01-16T17:39:01.835Z,24.33
2024-01-16T17:41:31.139Z,25.42
2024-01-16T17:43:58.487Z,25.58
2024-01-16T17:46:25.488Z,24.20
2024-01-16T17:48:52.682Z,22.00
2024-01-16T17:51:19.700Z,19.08
2024-01-16T17:53:49.259Z,17.75
2024-01-16T17:56:16.898Z,18.13
2024-01-16T17:58:44.766Z,18.60
2024-01-16T18:01:13.059Z,17.67
2024-01-16T18:03:44.908Z,19.20
2024-01-16T18:06:18.655Z,21.83
2024-01-16T18:08:46.128Z,19.00
2024-01-16T18:11:14.236Z,19.10
2024-01-16T18:13:43.642Z,16.58
2024-01-16T18:16:12.629Z,19.00
2024-01-16T18:18:40.191Z,20.42
2024-01-16T18:21:07.644Z,34.33
2024-01-16T18:23:36.320Z,36.65
2024-01-16T18:26:05.792Z,22.73
2024-01-16T18:28:32.893Z,21.30
2024-01-16T18:31:00.077Z,23.48
2024-01-16T18:33:27.232Z,18.90
2024-01-16T18:35:59.206Z,22.10
2024-01-16T18:38:28.816Z,31.42
2024-01-16T18:40:57.510Z,21.23
2024-01-16T18:43:24.770Z,18.73
2024-01-16T18:45:53.477Z,16.30
2024-01-16T18:48:20.720Z,26.85
2024-01-16T18:50:51.952Z,30.25
2024-01-16T18:53:21.176Z,29.15
2024-01-16T18:55:49.161Z,28.02
2024-01-16T18:58:16.056Z,31.45
2024-01-16T19:00:43.580Z,28.45
2024-01-16T19:03:11.579Z,23.13
2024-01-16T19:05:38.770Z,27.50
2024-01-16T19:08:05.785Z,40.88
2024-01-16T19:10:32.538Z,29.00
2024-01-16T19:12:59.381Z,15.70
2024-01-16T19:15:26.332Z,19.92
2024-01-16T19:17:54.495Z,17.13
2024-01-16T19:20:24.776Z,18.88
2024-01-16T19:22:53.682Z,18.92
2024-01-16T19:25:22.746Z,17.67
2024-01-16T19:27:50.498Z,19.30
2024-01-16T19:30:21.091Z,26.95
2024-01-16T19:32:49.613Z,24.27
2024-01-16T19:35:17.645Z,25.35
2024-01-16T19:37:45.701Z,25.42
2024-01-16T19:40:14.310Z,23.80
2024-01-16T19:42:41.845Z,22.65
2024-01-16T19:45:10.676Z,16.42
2024-01-16T19:47:43.413Z,21.60
2024-01-16T19:50:21.800Z,22.23
2024-01-16T19:52:51.868Z,20.75
2024-01-16T19:55:22.911Z,26.13
2024-01-16T19:57:50.417Z,20.98
2024-01-16T20:00:18.084Z,17.05
2024-01-16T20:02:45.312Z,18.75
2024-01-16T20:05:17.003Z,19.02
2024-01-16T20:07:44.686Z,17.83
2024-01-16T20:10:15.230Z,20.45
2024-01-16T20:12:46.338Z,19.30
2024-01-16T20:15:14.525Z,15.23
2024-01-16T20:17:45.329Z,26.23
2024-01-16T20:20:14.556Z,26.35
2024-01-16T20:22:41.912Z,21.17
2024-01-16T20:25:14.094Z,18.30
2024-01-16T20:27:41.874Z,17.85
2024-01-16T20:30:09.994Z,18.85
2024-01-16T20:32:40.493Z,21.88
2024-01-16T20:35:09.006Z,24.42
2024-01-16T20:37:35.941Z,24.00
2024-01-16T20:40:03.683Z,21.08
2024-01-16T20:42:31.641Z,20.92
2024-01-16T20:44:58.669Z,21.20
2024-01-16T20:47:25.667Z,21.17
2024-01-16T20:49:52.660Z,20.45
2024-01-16T20:52:20.261Z,20.02
2024-01-16T20:54:47.098Z,17.45
2024-01-16T20:57:14.654Z,17.88
2024-01-16T20:59:41.713Z,22.23
2024-01-16T21:02:08.643Z,14.02
2024-01-16T21:04:35.748Z,15.13
2024-01-16T21:07:05.200Z,14.50
2024-01-16T21:09:32.561Z,12.65
2024-01-16T21:12:02.097Z,11.45
2024-01-16T21:14:30.716Z,10.25
2024-01-16T21:16:58.362Z,10.25
2024-01-16T21:19:25.237Z,9.23
2024-01-16T21:21:52.407Z,11.30
2024-01-16T21:24:19.878Z,17.15
2024-01-16T21:26:49.844Z,14.98
2024-01-16T21:29:16.810Z,12.63
2024-01-16T21:31:47.836Z,9.32
2024-01-16T21:34:16.885Z,11.98
2024-01-16T21:36:48.228Z,13.13
2024-01-16T21:39:16.310Z,22.27
2024-01-16T21:41:44.399Z,23.42
2024-01-16T21:44:12.103Z,27.50
2024-01-16T21:46:40.303Z,24.73
2024-01-16T21:49:07.211Z,30.50
2024-01-16T21:51:34.084Z,29.98
2024-01-16T21:54:02.664Z,17.50
2024-01-16T21:56:29.617Z,9.88
2024-01-16T21:58:57.815Z,12.90
2024-01-16T22:01:24.639Z,14.75
2024-01-16T22:03:51.402Z,12.93
2024-01-16T22:06:18.414Z,11.85
2024-01-16T22:08:52.261Z,9.77
2024-01-16T22:11:19.329Z,10.57
2024-01-16T22:13:46.473Z,14.00
2024-01-16T22:16:13.318Z,14.95
2024-01-16T22:18:41.384Z,16.42
2024-01-16T22:21:08.641Z,14.25
2024-01-16T22:23:35.613Z,14.05
2024-01-16T22:26:02.830Z,14.70
2024-01-16T22:28:29.863Z,18.33
2024-01-16T22:30:57.566Z,17.30
2024-01-16T22:33:24.714Z,16.38
2024-01-16T22:35:51.719Z,17.02
2024-01-16T22:38:19.619Z,17.38
2024-01-16T22:40:46.717Z,18.67
2024-01-16T22:43:13.578Z,19.70
2024-01-16T22:45:41.031Z,17.92
2024-01-16T22:48:12.680Z,15.77
2024-01-16T22:50:43.414Z,14.48
2024-01-16T22:53:10.473Z,15.10
2024-01-16T22:55:37.243Z,14.00
2024-01-16T22:58:04.459Z,12.05
2024-01-16T23:00:31.742Z,12.82
2024-01-16T23:02:59.071Z,12.43
2024-01-16T23:05:28.506Z,12.32
2024-01-16T23:07:56.660Z,12.00
2024-01-16T23:10:23.574Z,11.60
2024-01-16T23:12:50.363Z,11.98
2024-01-16T23:15:17.141Z,12.95
2024-01-16T23:17:44.166Z,16.35
2024-01-16T23:20:14.541Z,15.38
2024-01-16T23:22:44.562Z,14.25
2024-01-16T23:25:11.754Z,14.00
2024-01-16T23:27:39.316Z,14.23
2024-01-16T23:30:07.106Z,12.93
2024-01-16T23:32:34.253Z,12.35
2024-01-16T23:35:01.649Z,10.88
2024-01-16T23:37:31.319Z,12.23
2024-01-16T23:39:58.701Z,12.20
2024-01-16T23:42:27.133Z,12.35
2024-01-16T23:44:54.962Z,13.00
2024-01-16T23:47:22.103Z,13.40
2024-01-16T23:49:49.015Z,13.75
2024-01-16T23:52:15.934Z,15.02
2024-01-16T23:54:42.760Z,15.75
2024-01-16T23:57:09.737Z,14.73
2024-01-16T23:59:36.597Z,15.05
